sensor_id;sensor_type;location;lat;lon;timestamp;P1;durP1;ratioP1;P2;durP2;ratioP2
8337;SDS011;4206;48.634;9.516;2023-07-30T00:00:48;7.63;;;5.20;;
8337;SDS011;4206;48.634;9.516;2023-07-30T00:03:16;8.43;;;5.30;;
8337;SDS011;4206;48.634;9.516;2023-07-30T00:05:51;6.07;;;5.30;;
8337;SDS011;4206;48.634;9.516;2023-07-30T00:08:20;7.20;;;4.83;;
8337;SDS011;4206;48.634;9.516;2023-07-30T00:10:47;6.20;;;5.00;;
8337;SDS011;4206;48.634;9.516;2023-07-30T00:13:14;7.80;;;5.83;;
8337;SDS011;4206;48.634;9.516;2023-07-30T00:15:41;7.50;;;5.67;;
8337;SDS011;4206;48.634;9.516;2023-07-30T00:18:08;6.13;;;5.30;;
8337;SDS011;4206;48.634;9.516;2023-07-30T00:20:35;6.93;;;5.40;;
8337;SDS011;4206;48.634;9.516;2023-07-30T00:23:02;7.93;;;5.50;;
8337;SDS011;4206;48.634;9.516;2023-07-30T00:25:29;7.83;;;5.70;;
8337;SDS011;4206;48.634;9.516;2023-07-30T00:27:56;6.93;;;5.07;;
8337;SDS011;4206;48.634;9.516;2023-07-30T00:30:23;6.83;;;5.70;;
8337;SDS011;4206;48.634;9.516;2023-07-30T00:32:50;6.30;;;5.00;;
8337;SDS011;4206;48.634;9.516;2023-07-30T00:35:17;7.33;;;5.03;;
8337;SDS011;4206;48.634;9.516;2023-07-30T00:37:44;6.70;;;5.63;;
8337;SDS011;4206;48.634;9.516;2023-07-30T00:40:11;8.57;;;5.43;;
8337;SDS011;4206;48.634;9.516;2023-07-30T00:42:38;9.83;;;6.50;;
8337;SDS011;4206;48.634;9.516;2023-07-30T00:45:05;10.10;;;6.00;;
8337;SDS011;4206;48.634;9.516;2023-07-30T00:47:33;7.70;;;5.93;;
8337;SDS011;4206;48.634;9.516;2023-07-30T00:49:59;10.53;;;6.10;;
8337;SDS011;4206;48.634;9.516;2023-07-30T00:52:27;7.00;;;5.40;;
8337;SDS011;4206;48.634;9.516;2023-07-30T00:54:54;7.03;;;5.57;;
8337;SDS011;4206;48.634;9.516;2023-07-30T00:57:24;7.73;;;6.53;;
8337;SDS011;4206;48.634;9.516;2023-07-30T00:59:52;13.87;;;6.23;;
8337;SDS011;4206;48.634;9.516;2023-07-30T01:02:19;7.83;;;6.50;;
8337;SDS011;4206;48.634;9.516;2023-07-30T01:04:47;6.83;;;6.13;;
8337;SDS011;4206;48.634;9.516;2023-07-30T01:07:16;7.63;;;5.40;;
8337;SDS011;4206;48.634;9.516;2023-07-30T01:09:42;9.37;;;5.70;;
8337;SDS011;4206;48.634;9.516;2023-07-30T01:12:09;11.40;;;6.43;;
8337;SDS011;4206;48.634;9.516;2023-07-30T01:14:37;17.07;;;5.77;;
8337;SDS011;4206;48.634;9.516;2023-07-30T01:17:04;8.87;;;6.10;;
8337;SDS011;4206;48.634;9.516;2023-07-30T01:19:31;7.37;;;6.07;;
8337;SDS011;4206;48.634;9.516;2023-07-30T01:21:58;8.13;;;5.87;;
8337;SDS011;4206;48.634;9.516;2023-07-30T01:24:25;9.00;;;6.70;;
8337;SDS011;4206;48.634;9.516;2023-07-30T01:26:56;9.80;;;6.27;;
8337;SDS011;4206;48.634;9.516;2023-07-30T01:29:31;14.23;;;6.70;;
8337;SDS011;4206;48.634;9.516;2023-07-30T01:32:07;7.97;;;5.80;;
8337;SDS011;4206;48.634;9.516;2023-07-30T01:34:36;9.87;;;6.40;;
8337;SDS011;4206;48.634;9.516;2023-07-30T01:37:05;9.60;;;6.57;;
8337;SDS011;4206;48.634;9.516;2023-07-30T01:39:36;8.10;;;5.27;;
8337;SDS011;4206;48.634;9.516;2023-07-30T01:42:05;6.83;;;5.60;;
8337;SDS011;4206;48.634;9.516;2023-07-30T01:44:32;6.77;;;6.03;;
8337;SDS011;4206;48.634;9.516;2023-07-30T01:46:59;6.20;;;5.60;;
8337;SDS011;4206;48.634;9.516;2023-07-30T01:49:26;6.20;;;5.10;;
8337;SDS011;4206;48.634;9.516;2023-07-30T01:51:55;6.10;;;5.13;;
8337;SDS011;4206;48.634;9.516;2023-07-30T01:54:22;8.70;;;5.33;;
8337;SDS011;4206;48.634;9.516;2023-07-30T01:56:49;8.23;;;5.13;;
8337;SDS011;4206;48.634;9.516;2023-07-30T01:59:16;7.50;;;5.03;;
8337;SDS011;4206;48.634;9.516;2023-07-30T02:01:43;6.53;;;5.27;;
8337;SDS011;4206;48.634;9.516;2023-07-30T02:04:10;5.57;;;4.30;;
8337;SDS011;4206;48.634;9.516;2023-07-30T02:06:37;6.07;;;4.00;;
8337;SDS011;4206;48.634;9.516;2023-07-30T02:09:04;4.93;;;3.70;;
8337;SDS011;4206;48.634;9.516;2023-07-30T02:11:30;5.67;;;4.30;;
8337;SDS011;4206;48.634;9.516;2023-07-30T02:13:57;6.13;;;4.10;;
8337;SDS011;4206;48.634;9.516;2023-07-30T02:16:24;4.50;;;3.60;;
8337;SDS011;4206;48.634;9.516;2023-07-30T02:18:51;7.00;;;4.20;;
8337;SDS011;4206;48.634;9.516;2023-07-30T02:21:18;7.17;;;4.03;;
8337;SDS011;4206;48.634;9.516;2023-07-30T02:23:45;6.83;;;3.97;;
8337;SDS011;4206;48.634;9.516;2023-07-30T02:26:12;10.77;;;3.60;;
8337;SDS011;4206;48.634;9.516;2023-07-30T02:28:38;5.00;;;3.50;;
8337;SDS011;4206;48.634;9.516;2023-07-30T02:31:05;5.03;;;4.30;;
8337;SDS011;4206;48.634;9.516;2023-07-30T02:33:32;7.20;;;3.97;;
8337;SDS011;4206;48.634;9.516;2023-07-30T02:35:59;7.20;;;4.30;;
8337;SDS011;4206;48.634;9.516;2023-07-30T02:38:26;7.20;;;3.80;;
8337;SDS011;4206;48.634;9.516;2023-07-30T02:40:53;4.80;;;3.93;;
8337;SDS011;4206;48.634;9.516;2023-07-30T02:43:20;7.00;;;4.50;;
8337;SDS011;4206;48.634;9.516;2023-07-30T02:45:47;4.20;;;3.80;;
8337;SDS011;4206;48.634;9.516;2023-07-30T02:48:15;10.43;;;3.80;;
8337;SDS011;4206;48.634;9.516;2023-07-30T02:50:42;7.33;;;3.83;;
8337;SDS011;4206;48.634;9.516;2023-07-30T02:53:09;6.03;;;4.03;;
8337;SDS011;4206;48.634;9.516;2023-07-30T02:55:35;4.90;;;4.40;;
8337;SDS011;4206;48.634;9.516;2023-07-30T02:58:02;6.30;;;4.70;;
8337;SDS011;4206;48.634;9.516;2023-07-30T03:00:29;4.40;;;3.77;;
8337;SDS011;4206;48.634;9.516;2023-07-30T03:02:56;5.40;;;3.83;;
8337;SDS011;4206;48.634;9.516;2023-07-30T03:05:23;5.73;;;3.40;;
8337;SDS011;4206;48.634;9.516;2023-07-30T03:07:50;3.30;;;3.00;;
8337;SDS011;4206;48.634;9.516;2023-07-30T03:10:17;7.93;;;3.50;;
8337;SDS011;4206;48.634;9.516;2023-07-30T03:12:44;3.97;;;3.60;;
8337;SDS011;4206;48.634;9.516;2023-07-30T03:15:10;6.17;;;3.93;;
8337;SDS011;4206;48.634;9.516;2023-07-30T03:17:37;7.33;;;3.90;;
8337;SDS011;4206;48.634;9.516;2023-07-30T03:20:04;5.97;;;3.37;;
8337;SDS011;4206;48.634;9.516;2023-07-30T03:22:32;4.40;;;3.73;;
8337;SDS011;4206;48.634;9.516;2023-07-30T03:24:59;4.30;;;3.77;;
8337;SDS011;4206;48.634;9.516;2023-07-30T03:27:26;5.00;;;4.00;;
8337;SDS011;4206;48.634;9.516;2023-07-30T03:29:52;4.93;;;4.00;;
8337;SDS011;4206;48.634;9.516;2023-07-30T03:32:19;4.20;;;3.80;;
8337;SDS011;4206;48.634;9.516;2023-07-30T03:34:46;4.20;;;3.47;;
8337;SDS011;4206;48.634;9.516;2023-07-30T03:37:13;6.70;;;3.40;;
8337;SDS011;4206;48.634;9.516;2023-07-30T03:39:40;4.60;;;3.60;;
8337;SDS011;4206;48.634;9.516;2023-07-30T03:42:07;8.00;;;3.47;;
8337;SDS011;4206;48.634;9.516;2023-07-30T03:44:34;3.73;;;3.33;;
8337;SDS011;4206;48.634;9.516;2023-07-30T03:47:01;4.50;;;3.80;;
8337;SDS011;4206;48.634;9.516;2023-07-30T03:49:27;4.30;;;3.10;;
8337;SDS011;4206;48.634;9.516;2023-07-30T03:51:54;3.33;;;2.90;;
8337;SDS011;4206;48.634;9.516;2023-07-30T03:54:21;4.17;;;3.77;;
8337;SDS011;4206;48.634;9.516;2023-07-30T03:56:48;4.23;;;3.50;;
8337;SDS011;4206;48.634;9.516;2023-07-30T03:59:15;5.07;;;2.93;;
8337;SDS011;4206;48.634;9.516;2023-07-30T04:01:41;3.60;;;3.03;;
8337;SDS011;4206;48.634;9.516;2023-07-30T04:04:08;7.37;;;3.87;;
8337;SDS011;4206;48.634;9.516;2023-07-30T04:06:35;6.23;;;3.80;;
8337;SDS011;4206;48.634;9.516;2023-07-30T04:09:02;5.77;;;3.37;;
8337;SDS011;4206;48.634;9.516;2023-07-30T04:11:29;4.03;;;3.73;;
8337;SDS011;4206;48.634;9.516;2023-07-30T04:13:56;5.60;;;3.77;;
8337;SDS011;4206;48.634;9.516;2023-07-30T04:16:23;5.73;;;4.03;;
8337;SDS011;4206;48.634;9.516;2023-07-30T04:18:50;12.40;;;3.30;;
8337;SDS011;4206;48.634;9.516;2023-07-30T04:21:17;6.07;;;3.53;;
8337;SDS011;4206;48.634;9.516;2023-07-30T04:23:44;7.70;;;4.20;;
8337;SDS011;4206;48.634;9.516;2023-07-30T04:26:10;4.53;;;3.93;;
8337;SDS011;4206;48.634;9.516;2023-07-30T04:28:37;5.63;;;3.43;;
8337;SDS011;4206;48.634;9.516;2023-07-30T04:31:04;4.30;;;3.40;;
8337;SDS011;4206;48.634;9.516;2023-07-30T04:33:31;4.27;;;3.50;;
8337;SDS011;4206;48.634;9.516;2023-07-30T04:35:58;10.00;;;3.60;;
8337;SDS011;4206;48.634;9.516;2023-07-30T04:38:25;3.80;;;3.37;;
8337;SDS011;4206;48.634;9.516;2023-07-30T04:40:52;4.00;;;3.40;;
8337;SDS011;4206;48.634;9.516;2023-07-30T04:43:18;3.93;;;3.27;;
8337;SDS011;4206;48.634;9.516;2023-07-30T04:45:45;4.00;;;3.03;;
8337;SDS011;4206;48.634;9.516;2023-07-30T04:48:12;6.83;;;3.10;;
8337;SDS011;4206;48.634;9.516;2023-07-30T04:50:39;4.73;;;2.90;;
8337;SDS011;4206;48.634;9.516;2023-07-30T04:53:08;4.60;;;2.87;;
8337;SDS011;4206;48.634;9.516;2023-07-30T04:55:35;4.27;;;2.93;;
8337;SDS011;4206;48.634;9.516;2023-07-30T04:58:02;4.57;;;2.70;;
8337;SDS011;4206;48.634;9.516;2023-07-30T05:00:29;5.57;;;2.87;;
8337;SDS011;4206;48.634;9.516;2023-07-30T05:02:56;7.30;;;2.90;;
8337;SDS011;4206;48.634;9.516;2023-07-30T05:05:23;4.40;;;2.57;;
8337;SDS011;4206;48.634;9.516;2023-07-30T05:07:50;2.70;;;2.50;;
8337;SDS011;4206;48.634;9.516;2023-07-30T05:10:17;5.80;;;2.47;;
8337;SDS011;4206;48.634;9.516;2023-07-30T05:12:44;4.03;;;2.93;;
8337;SDS011;4206;48.634;9.516;2023-07-30T05:15:11;3.30;;;3.00;;
8337;SDS011;4206;48.634;9.516;2023-07-30T05:17:38;4.03;;;3.20;;
8337;SDS011;4206;48.634;9.516;2023-07-30T05:20:05;4.17;;;2.60;;
8337;SDS011;4206;48.634;9.516;2023-07-30T05:22:33;3.80;;;3.00;;
8337;SDS011;4206;48.634;9.516;2023-07-30T05:25:00;3.30;;;3.00;;
8337;SDS011;4206;48.634;9.516;2023-07-30T05:27:27;3.50;;;3.10;;
8337;SDS011;4206;48.634;9.516;2023-07-30T05:29:55;6.77;;;3.03;;
8337;SDS011;4206;48.634;9.516;2023-07-30T05:32:22;2.80;;;2.50;;
8337;SDS011;4206;48.634;9.516;2023-07-30T05:34:49;8.43;;;2.80;;
8337;SDS011;4206;48.634;9.516;2023-07-30T05:37:15;11.13;;;2.90;;
8337;SDS011;4206;48.634;9.516;2023-07-30T05:39:42;2.73;;;2.53;;
8337;SDS011;4206;48.634;9.516;2023-07-30T05:42:09;2.00;;;1.90;;
8337;SDS011;4206;48.634;9.516;2023-07-30T05:44:36;2.17;;;2.03;;
8337;SDS011;4206;48.634;9.516;2023-07-30T05:47:03;6.60;;;2.90;;
8337;SDS011;4206;48.634;9.516;2023-07-30T05:49:30;3.23;;;2.70;;
8337;SDS011;4206;48.634;9.516;2023-07-30T05:51:57;3.00;;;2.40;;
8337;SDS011;4206;48.634;9.516;2023-07-30T05:54:23;3.00;;;2.63;;
8337;SDS011;4206;48.634;9.516;2023-07-30T05:56:50;2.53;;;2.33;;
8337;SDS011;4206;48.634;9.516;2023-07-30T05:59:17;3.53;;;2.40;;
8337;SDS011;4206;48.634;9.516;2023-07-30T06:01:47;2.40;;;2.20;;
8337;SDS011;4206;48.634;9.516;2023-07-30T06:04:14;2.50;;;2.30;;
8337;SDS011;4206;48.634;9.516;2023-07-30T06:06:41;2.80;;;2.60;;
8337;SDS011;4206;48.634;9.516;2023-07-30T06:09:08;4.97;;;2.43;;
8337;SDS011;4206;48.634;9.516;2023-07-30T06:11:35;3.67;;;2.40;;
8337;SDS011;4206;48.634;9.516;2023-07-30T06:14:02;2.47;;;2.20;;
8337;SDS011;4206;48.634;9.516;2023-07-30T06:16:29;3.03;;;2.73;;
8337;SDS011;4206;48.634;9.516;2023-07-30T06:18:56;4.43;;;2.40;;
8337;SDS011;4206;48.634;9.516;2023-07-30T06:21:23;2.97;;;2.50;;
8337;SDS011;4206;48.634;9.516;2023-07-30T06:23:50;3.67;;;2.30;;
8337;SDS011;4206;48.634;9.516;2023-07-30T06:26:17;3.40;;;2.33;;
8337;SDS011;4206;48.634;9.516;2023-07-30T06:28:44;2.40;;;2.20;;
8337;SDS011;4206;48.634;9.516;2023-07-30T06:31:10;6.80;;;2.70;;
8337;SDS011;4206;48.634;9.516;2023-07-30T06:33:38;3.53;;;2.40;;
8337;SDS011;4206;48.634;9.516;2023-07-30T06:36:04;3.10;;;2.30;;
8337;SDS011;4206;48.634;9.516;2023-07-30T06:38:31;2.50;;;2.27;;
8337;SDS011;4206;48.634;9.516;2023-07-30T06:41:01;4.37;;;2.47;;
8337;SDS011;4206;48.634;9.516;2023-07-30T06:43:27;3.13;;;2.10;;
8337;SDS011;4206;48.634;9.516;2023-07-30T06:45:54;2.87;;;2.10;;
8337;SDS011;4206;48.634;9.516;2023-07-30T06:48:21;2.37;;;2.10;;
8337;SDS011;4206;48.634;9.516;2023-07-30T06:50:48;2.73;;;2.50;;
8337;SDS011;4206;48.634;9.516;2023-07-30T06:53:18;2.30;;;1.87;;
8337;SDS011;4206;48.634;9.516;2023-07-30T06:55:47;2.77;;;1.70;;
8337;SDS011;4206;48.634;9.516;2023-07-30T06:58:14;2.20;;;2.00;;
8337;SDS011;4206;48.634;9.516;2023-07-30T07:00:44;2.30;;;2.10;;
8337;SDS011;4206;48.634;9.516;2023-07-30T07:03:11;2.27;;;1.90;;
8337;SDS011;4206;48.634;9.516;2023-07-30T07:05:38;2.53;;;2.03;;
8337;SDS011;4206;48.634;9.516;2023-07-30T07:08:09;2.40;;;2.20;;
8337;SDS011;4206;48.634;9.516;2023-07-30T07:10:36;3.77;;;2.07;;
8337;SDS011;4206;48.634;9.516;2023-07-30T07:13:03;2.17;;;1.87;;
8337;SDS011;4206;48.634;9.516;2023-07-30T07:15:30;4.30;;;2.20;;
8337;SDS011;4206;48.634;9.516;2023-07-30T07:17:57;1.70;;;1.60;;
8337;SDS011;4206;48.634;9.516;2023-07-30T07:20:24;2.03;;;1.93;;
8337;SDS011;4206;48.634;9.516;2023-07-30T07:22:51;3.33;;;1.87;;
8337;SDS011;4206;48.634;9.516;2023-07-30T07:25:17;1.97;;;1.70;;
8337;SDS011;4206;48.634;9.516;2023-07-30T07:27:45;1.63;;;1.53;;
8337;SDS011;4206;48.634;9.516;2023-07-30T07:30:12;1.70;;;1.60;;
8337;SDS011;4206;48.634;9.516;2023-07-30T07:32:39;2.97;;;2.00;;
8337;SDS011;4206;48.634;9.516;2023-07-30T07:35:07;2.70;;;1.87;;
8337;SDS011;4206;48.634;9.516;2023-07-30T07:37:34;2.10;;;1.43;;
8337;SDS011;4206;48.634;9.516;2023-07-30T07:40:02;4.67;;;1.20;;
8337;SDS011;4206;48.634;9.516;2023-07-30T07:42:29;2.80;;;1.30;;
8337;SDS011;4206;48.634;9.516;2023-07-30T07:44:56;1.70;;;1.60;;
8337;SDS011;4206;48.634;9.516;2023-07-30T07:47:23;4.63;;;1.43;;
8337;SDS011;4206;48.634;9.516;2023-07-30T07:49:50;2.47;;;1.50;;
8337;SDS011;4206;48.634;9.516;2023-07-30T07:52:17;1.47;;;1.10;;
8337;SDS011;4206;48.634;9.516;2023-07-30T07:54:45;2.70;;;1.53;;
8337;SDS011;4206;48.634;9.516;2023-07-30T07:57:12;2.03;;;1.53;;
8337;SDS011;4206;48.634;9.516;2023-07-30T07:59:39;4.90;;;1.70;;
8337;SDS011;4206;48.634;9.516;2023-07-30T08:02:07;2.03;;;1.77;;
8337;SDS011;4206;48.634;9.516;2023-07-30T08:04:35;3.13;;;1.47;;
8337;SDS011;4206;48.634;9.516;2023-07-30T08:07:02;8.43;;;1.70;;
8337;SDS011;4206;48.634;9.516;2023-07-30T08:09:30;1.47;;;1.33;;
8337;SDS011;4206;48.634;9.516;2023-07-30T08:11:57;1.60;;;1.50;;
8337;SDS011;4206;48.634;9.516;2023-07-30T08:14:25;2.07;;;1.50;;
8337;SDS011;4206;48.634;9.516;2023-07-30T08:16:52;3.40;;;1.10;;
8337;SDS011;4206;48.634;9.516;2023-07-30T08:19:19;5.13;;;1.30;;
8337;SDS011;4206;48.634;9.516;2023-07-30T08:21:46;3.97;;;1.87;;
8337;SDS011;4206;48.634;9.516;2023-07-30T08:24:13;1.10;;;1.00;;
8337;SDS011;4206;48.634;9.516;2023-07-30T08:26:40;1.10;;;1.00;;
8337;SDS011;4206;48.634;9.516;2023-07-30T08:29:07;2.10;;;1.50;;
8337;SDS011;4206;48.634;9.516;2023-07-30T08:31:36;1.53;;;1.23;;
8337;SDS011;4206;48.634;9.516;2023-07-30T08:34:04;1.00;;;1.00;;
8337;SDS011;4206;48.634;9.516;2023-07-30T08:36:30;1.20;;;1.10;;
8337;SDS011;4206;48.634;9.516;2023-07-30T08:38:57;1.03;;;0.90;;
8337;SDS011;4206;48.634;9.516;2023-07-30T08:41:24;1.27;;;1.17;;
8337;SDS011;4206;48.634;9.516;2023-07-30T08:43:51;1.87;;;1.70;;
8337;SDS011;4206;48.634;9.516;2023-07-30T08:46:19;3.57;;;1.33;;
8337;SDS011;4206;48.634;9.516;2023-07-30T08:48:46;2.63;;;1.20;;
8337;SDS011;4206;48.634;9.516;2023-07-30T08:51:16;0.80;;;0.80;;
8337;SDS011;4206;48.634;9.516;2023-07-30T08:53:44;3.13;;;1.00;;
8337;SDS011;4206;48.634;9.516;2023-07-30T08:56:12;2.00;;;1.13;;
8337;SDS011;4206;48.634;9.516;2023-07-30T08:58:39;0.97;;;0.90;;
8337;SDS011;4206;48.634;9.516;2023-07-30T09:01:08;3.40;;;2.80;;
8337;SDS011;4206;48.634;9.516;2023-07-30T09:03:38;1.90;;;0.90;;
8337;SDS011;4206;48.634;9.516;2023-07-30T09:06:07;0.90;;;0.90;;
8337;SDS011;4206;48.634;9.516;2023-07-30T09:08:34;1.53;;;1.10;;
8337;SDS011;4206;48.634;9.516;2023-07-30T09:11:09;2.27;;;1.20;;
8337;SDS011;4206;48.634;9.516;2023-07-30T09:13:37;2.40;;;1.00;;
8337;SDS011;4206;48.634;9.516;2023-07-30T09:16:13;1.10;;;1.00;;
8337;SDS011;4206;48.634;9.516;2023-07-30T09:18:43;1.20;;;1.10;;
8337;SDS011;4206;48.634;9.516;2023-07-30T09:21:12;0.80;;;0.80;;
8337;SDS011;4206;48.634;9.516;2023-07-30T09:23:42;1.83;;;1.13;;
8337;SDS011;4206;48.634;9.516;2023-07-30T09:26:13;1.97;;;1.03;;
8337;SDS011;4206;48.634;9.516;2023-07-30T09:28:41;2.60;;;1.07;;
8337;SDS011;4206;48.634;9.516;2023-07-30T09:31:08;1.40;;;1.30;;
8337;SDS011;4206;48.634;9.516;2023-07-30T09:33:41;3.00;;;0.97;;
8337;SDS011;4206;48.634;9.516;2023-07-30T09:36:08;1.10;;;1.00;;
8337;SDS011;4206;48.634;9.516;2023-07-30T09:38:39;2.27;;;1.23;;
8337;SDS011;4206;48.634;9.516;2023-07-30T09:41:07;4.47;;;1.30;;
8337;SDS011;4206;48.634;9.516;2023-07-30T09:43:36;1.43;;;1.10;;
8337;SDS011;4206;48.634;9.516;2023-07-30T09:46:03;1.43;;;1.00;;
8337;SDS011;4206;48.634;9.516;2023-07-30T09:48:32;1.00;;;0.83;;
8337;SDS011;4206;48.634;9.516;2023-07-30T09:51:01;1.30;;;0.97;;
8337;SDS011;4206;48.634;9.516;2023-07-30T09:53:29;3.30;;;1.23;;
8337;SDS011;4206;48.634;9.516;2023-07-30T09:56:01;2.77;;;1.17;;
8337;SDS011;4206;48.634;9.516;2023-07-30T09:58:29;1.10;;;0.87;;
8337;SDS011;4206;48.634;9.516;2023-07-30T10:00:58;1.97;;;1.33;;
8337;SDS011;4206;48.634;9.516;2023-07-30T10:03:26;1.20;;;1.10;;
8337;SDS011;4206;48.634;9.516;2023-07-30T10:05:55;1.40;;;1.17;;
8337;SDS011;4206;48.634;9.516;2023-07-30T10:08:29;2.23;;;1.10;;
8337;SDS011;4206;48.634;9.516;2023-07-30T10:11:00;1.90;;;1.03;;
8337;SDS011;4206;48.634;9.516;2023-07-30T10:13:31;1.80;;;1.30;;
8337;SDS011;4206;48.634;9.516;2023-07-30T10:15:58;5.23;;;1.77;;
8337;SDS011;4206;48.634;9.516;2023-07-30T10:18:33;1.80;;;1.50;;
8337;SDS011;4206;48.634;9.516;2023-07-30T10:21:04;1.20;;;1.10;;
8337;SDS011;4206;48.634;9.516;2023-07-30T10:26:35;8.80;;;1.90;;
8337;SDS011;4206;48.634;9.516;2023-07-30T10:31:52;5.20;;;1.47;;
8337;SDS011;4206;48.634;9.516;2023-07-30T10:34:22;2.83;;;1.53;;
8337;SDS011;4206;48.634;9.516;2023-07-30T10:36:54;6.10;;;1.40;;
8337;SDS011;4206;48.634;9.516;2023-07-30T10:39:26;2.97;;;1.47;;
8337;SDS011;4206;48.634;9.516;2023-07-30T10:41:55;1.93;;;1.20;;
8337;SDS011;4206;48.634;9.516;2023-07-30T10:46:55;2.97;;;1.10;;
8337;SDS011;4206;48.634;9.516;2023-07-30T10:49:24;2.67;;;0.90;;
8337;SDS011;4206;48.634;9.516;2023-07-30T10:51:51;3.00;;;1.40;;
8337;SDS011;4206;48.634;9.516;2023-07-30T10:54:19;2.80;;;1.47;;
8337;SDS011;4206;48.634;9.516;2023-07-30T10:56:46;3.17;;;1.17;;
8337;SDS011;4206;48.634;9.516;2023-07-30T10:59:14;2.50;;;1.73;;
8337;SDS011;4206;48.634;9.516;2023-07-30T11:01:42;1.20;;;1.00;;
8337;SDS011;4206;48.634;9.516;2023-07-30T11:04:11;2.83;;;1.13;;
8337;SDS011;4206;48.634;9.516;2023-07-30T11:06:49;6.43;;;1.00;;
8337;SDS011;4206;48.634;9.516;2023-07-30T11:09:18;2.17;;;1.33;;
8337;SDS011;4206;48.634;9.516;2023-07-30T11:11:46;1.50;;;1.33;;
8337;SDS011;4206;48.634;9.516;2023-07-30T11:14:15;2.87;;;1.10;;
8337;SDS011;4206;48.634;9.516;2023-07-30T11:16:47;1.77;;;1.30;;
8337;SDS011;4206;48.634;9.516;2023-07-30T11:19:16;0.93;;;0.93;;
8337;SDS011;4206;48.634;9.516;2023-07-30T11:21:44;1.20;;;1.10;;
8337;SDS011;4206;48.634;9.516;2023-07-30T11:24:12;1.13;;;1.07;;
8337;SDS011;4206;48.634;9.516;2023-07-30T11:26:40;2.20;;;1.10;;
8337;SDS011;4206;48.634;9.516;2023-07-30T11:29:15;2.80;;;1.60;;
8337;SDS011;4206;48.634;9.516;2023-07-30T11:31:43;4.73;;;1.47;;
8337;SDS011;4206;48.634;9.516;2023-07-30T11:34:11;1.57;;;1.30;;
8337;SDS011;4206;48.634;9.516;2023-07-30T11:36:41;2.23;;;1.60;;
8337;SDS011;4206;48.634;9.516;2023-07-30T11:39:09;1.40;;;1.20;;
8337;SDS011;4206;48.634;9.516;2023-07-30T11:41:36;1.57;;;1.47;;
8337;SDS011;4206;48.634;9.516;2023-07-30T11:44:05;1.30;;;1.20;;
8337;SDS011;4206;48.634;9.516;2023-07-30T11:46:32;2.67;;;1.50;;
8337;SDS011;4206;48.634;9.516;2023-07-30T11:51:45;2.20;;;1.30;;
8337;SDS011;4206;48.634;9.516;2023-07-30T11:54:21;2.70;;;1.53;;
8337;SDS011;4206;48.634;9.516;2023-07-30T11:56:53;1.17;;;1.07;;
8337;SDS011;4206;48.634;9.516;2023-07-30T11:59:22;2.00;;;1.40;;
8337;SDS011;4206;48.634;9.516;2023-07-30T12:01:49;1.73;;;1.20;;
8337;SDS011;4206;48.634;9.516;2023-07-30T12:04:16;3.80;;;1.17;;
8337;SDS011;4206;48.634;9.516;2023-07-30T12:06:45;1.40;;;1.30;;
8337;SDS011;4206;48.634;9.516;2023-07-30T12:09:14;1.83;;;1.33;;
8337;SDS011;4206;48.634;9.516;2023-07-30T12:11:45;1.60;;;1.17;;
8337;SDS011;4206;48.634;9.516;2023-07-30T12:14:15;1.23;;;1.13;;
8337;SDS011;4206;48.634;9.516;2023-07-30T12:16:43;4.37;;;1.23;;
8337;SDS011;4206;48.634;9.516;2023-07-30T12:19:10;2.00;;;1.20;;
8337;SDS011;4206;48.634;9.516;2023-07-30T12:21:37;1.30;;;1.20;;
8337;SDS011;4206;48.634;9.516;2023-07-30T12:24:05;3.77;;;1.30;;
8337;SDS011;4206;48.634;9.516;2023-07-30T12:26:32;2.27;;;1.37;;
8337;SDS011;4206;48.634;9.516;2023-07-30T12:28:59;2.00;;;1.40;;
8337;SDS011;4206;48.634;9.516;2023-07-30T12:31:26;3.40;;;1.30;;
8337;SDS011;4206;48.634;9.516;2023-07-30T12:33:53;3.90;;;1.30;;
8337;SDS011;4206;48.634;9.516;2023-07-30T12:36:20;3.57;;;1.57;;
8337;SDS011;4206;48.634;9.516;2023-07-30T12:38:47;1.90;;;1.43;;
8337;SDS011;4206;48.634;9.516;2023-07-30T12:41:14;1.40;;;1.30;;
8337;SDS011;4206;48.634;9.516;2023-07-30T12:43:41;1.63;;;1.50;;
8337;SDS011;4206;48.634;9.516;2023-07-30T12:46:08;2.17;;;1.98;;
8337;SDS011;4206;48.634;9.516;2023-07-30T12:48:35;3.70;;;1.33;;
8337;SDS011;4206;48.634;9.516;2023-07-30T12:51:02;6.05;;;1.70;;
8337;SDS011;4206;48.634;9.516;2023-07-30T12:53:30;1.83;;;1.27;;
8337;SDS011;4206;48.634;9.516;2023-07-30T12:55:56;2.25;;;1.55;;
8337;SDS011;4206;48.634;9.516;2023-07-30T12:58:23;2.58;;;1.48;;
8337;SDS011;4206;48.634;9.516;2023-07-30T13:00:50;2.30;;;1.50;;
8337;SDS011;4206;48.634;9.516;2023-07-30T13:03:17;1.48;;;1.38;;
8337;SDS011;4206;48.634;9.516;2023-07-30T13:05:44;3.97;;;1.40;;
8337;SDS011;4206;48.634;9.516;2023-07-30T13:08:11;1.90;;;1.25;;
8337;SDS011;4206;48.634;9.516;2023-07-30T13:10:38;2.80;;;1.83;;
8337;SDS011;4206;48.634;9.516;2023-07-30T13:13:05;2.83;;;1.57;;
8337;SDS011;4206;48.634;9.516;2023-07-30T13:15:32;3.33;;;1.20;;
8337;SDS011;4206;48.634;9.516;2023-07-30T13:17:59;2.00;;;1.80;;
8337;SDS011;4206;48.634;9.516;2023-07-30T13:20:26;3.63;;;1.63;;
8337;SDS011;4206;48.634;9.516;2023-07-30T13:22:53;3.00;;;1.50;;
8337;SDS011;4206;48.634;9.516;2023-07-30T13:25:20;2.00;;;1.50;;
8337;SDS011;4206;48.634;9.516;2023-07-30T13:27:47;3.00;;;1.77;;
8337;SDS011;4206;48.634;9.516;2023-07-30T13:30:14;2.70;;;1.80;;
8337;SDS011;4206;48.634;9.516;2023-07-30T13:32:41;2.17;;;1.60;;
8337;SDS011;4206;48.634;9.516;2023-07-30T13:35:08;1.70;;;1.10;;
8337;SDS011;4206;48.634;9.516;2023-07-30T13:37:38;2.20;;;1.90;;
8337;SDS011;4206;48.634;9.516;2023-07-30T13:40:08;2.03;;;1.30;;
8337;SDS011;4206;48.634;9.516;2023-07-30T13:42:36;1.10;;;1.00;;
8337;SDS011;4206;48.634;9.516;2023-07-30T13:45:04;2.93;;;1.37;;
8337;SDS011;4206;48.634;9.516;2023-07-30T13:47:31;1.60;;;1.30;;
8337;SDS011;4206;48.634;9.516;2023-07-30T13:49:58;4.28;;;1.52;;
8337;SDS011;4206;48.634;9.516;2023-07-30T13:52:25;1.30;;;1.20;;
8337;SDS011;4206;48.634;9.516;2023-07-30T13:54:52;3.25;;;1.75;;
8337;SDS011;4206;48.634;9.516;2023-07-30T13:57:22;2.90;;;1.70;;
8337;SDS011;4206;48.634;9.516;2023-07-30T13:59:52;2.13;;;1.60;;
8337;SDS011;4206;48.634;9.516;2023-07-30T14:02:19;2.63;;;1.60;;
8337;SDS011;4206;48.634;9.516;2023-07-30T14:04:47;2.00;;;1.57;;
8337;SDS011;4206;48.634;9.516;2023-07-30T14:07:13;4.93;;;2.03;;
8337;SDS011;4206;48.634;9.516;2023-07-30T14:09:41;2.33;;;1.27;;
8337;SDS011;4206;48.634;9.516;2023-07-30T14:12:09;4.47;;;1.70;;
8337;SDS011;4206;48.634;9.516;2023-07-30T14:14:36;1.93;;;1.60;;
8337;SDS011;4206;48.634;9.516;2023-07-30T14:17:03;2.70;;;1.50;;
8337;SDS011;4206;48.634;9.516;2023-07-30T14:19:33;2.10;;;1.50;;
8337;SDS011;4206;48.634;9.516;2023-07-30T14:22:00;5.33;;;1.70;;
8337;SDS011;4206;48.634;9.516;2023-07-30T14:24:28;2.30;;;1.30;;
8337;SDS011;4206;48.634;9.516;2023-07-30T14:26:55;1.67;;;1.30;;
8337;SDS011;4206;48.634;9.516;2023-07-30T14:29:22;2.80;;;1.53;;
8337;SDS011;4206;48.634;9.516;2023-07-30T14:31:49;2.83;;;1.47;;
8337;SDS011;4206;48.634;9.516;2023-07-30T14:34:16;3.33;;;1.40;;
8337;SDS011;4206;48.634;9.516;2023-07-30T14:36:43;2.10;;;1.37;;
8337;SDS011;4206;48.634;9.516;2023-07-30T14:39:09;2.97;;;1.27;;
8337;SDS011;4206;48.634;9.516;2023-07-30T14:41:37;1.10;;;1.00;;
8337;SDS011;4206;48.634;9.516;2023-07-30T14:44:05;4.77;;;1.53;;
8337;SDS011;4206;48.634;9.516;2023-07-30T14:46:32;2.93;;;1.60;;
8337;SDS011;4206;48.634;9.516;2023-07-30T14:48:59;2.00;;;1.50;;
8337;SDS011;4206;48.634;9.516;2023-07-30T14:51:26;4.53;;;1.90;;
8337;SDS011;4206;48.634;9.516;2023-07-30T14:53:52;3.63;;;1.67;;
8337;SDS011;4206;48.634;9.516;2023-07-30T14:56:19;2.67;;;1.50;;
8337;SDS011;4206;48.634;9.516;2023-07-30T14:58:46;2.20;;;1.43;;
8337;SDS011;4206;48.634;9.516;2023-07-30T15:01:13;5.67;;;1.83;;
8337;SDS011;4206;48.634;9.516;2023-07-30T15:03:40;2.17;;;1.40;;
8337;SDS011;4206;48.634;9.516;2023-07-30T15:06:07;2.50;;;1.60;;
8337;SDS011;4206;48.634;9.516;2023-07-30T15:08:34;2.10;;;1.37;;
8337;SDS011;4206;48.634;9.516;2023-07-30T15:11:01;3.13;;;1.70;;
8337;SDS011;4206;48.634;9.516;2023-07-30T15:13:28;1.50;;;1.40;;
8337;SDS011;4206;48.634;9.516;2023-07-30T15:15:56;2.93;;;1.30;;
8337;SDS011;4206;48.634;9.516;2023-07-30T15:18:23;3.60;;;1.40;;
8337;SDS011;4206;48.634;9.516;2023-07-30T15:20:50;3.97;;;1.50;;
8337;SDS011;4206;48.634;9.516;2023-07-30T15:23:16;2.80;;;1.67;;
8337;SDS011;4206;48.634;9.516;2023-07-30T15:25:45;2.87;;;1.73;;
8337;SDS011;4206;48.634;9.516;2023-07-30T15:28:12;4.30;;;2.10;;